Time;durP1;ratioP1;P1;durP2;ratioP2;P2;SDS_P1;SDS_P2;PMS_P1;PMS_P2;Temp;Humidity;BMP_temperature;BMP_pressure;BME280_temperature;BME280_humidity;BME280_pressure;Samples;Min_cycle;Max_cycle;Signal;HPM_P1;HPM_P2
2021/08/08 00:01:26;;;;;;;21.00;5.63;;;15.70;99.90;;;;;;5118606;27;20201;-75
2021/08/08 00:03:54;;;;;;;21.43;5.30;;;15.70;99.90;;;;;;5115186;27;20297;-75
2021/08/08 00:06:21;;;;;;;20.90;5.23;;;15.70;99.90;;;;;;5116125;27;20556;-75
2021/08/08 00:08:47;;;;;;;18.00;5.33;;;15.70;99.90;;;;;;5114427;27;20233;-75
2021/08/08 00:11:16;;;;;;;27.07;5.27;;;15.70;99.90;;;;;;5116864;27;20248;-75
2021/08/08 00:13:43;;;;;;;19.07;4.60;;;15.60;99.90;;;;;;5134638;27;20285;-75
2021/08/08 00:16:09;;;;;;;19.13;5.00;;;15.70;99.90;;;;;;5134741;27;20236;-76
2021/08/08 00:18:36;;;;;;;16.90;4.83;;;15.70;99.90;;;;;;5134632;27;20248;-75
2021/08/08 00:21:03;;;;;;;15.37;4.33;;;15.70;99.90;;;;;;5134845;27;20208;-75
2021/08/08 00:23:30;;;;;;;17.77;3.87;;;15.70;99.90;;;;;;5134234;27;20292;-75
2021/08/08 00:25:57;;;;;;;12.60;4.27;;;15.60;99.90;;;;;;5134087;27;20233;-75
2021/08/08 00:28:26;;;;;;;15.33;4.17;;;15.60;99.90;;;;;;5133371;27;20650;-75
2021/08/08 00:30:53;;;;;;;19.00;4.20;;;15.60;99.90;;;;;;5134364;27;20293;-75
2021/08/08 00:33:19;;;;;;;24.70;4.17;;;15.60;99.90;;;;;;5134755;27;20623;-75
2021/08/08 00:35:46;;;;;;;19.37;4.33;;;15.60;99.90;;;;;;5134606;27;20297;-75
2021/08/08 00:38:13;;;;;;;14.23;3.80;;;15.60;99.90;;;;;;5134489;27;20236;-75
2021/08/08 00:40:40;;;;;;;15.57;4.43;;;15.60;99.90;;;;;;5134305;27;20267;-75
2021/08/08 00:43:10;;;;;;;17.07;4.23;;;15.60;99.90;;;;;;5134006;27;20700;-75
2021/08/08 00:45:38;;;;;;;17.43;4.13;;;15.50;99.90;;;;;;5134269;27;20193;-76
2021/08/08 00:48:05;;;;;;;16.57;3.83;;;15.40;99.90;;;;;;5134426;27;20288;-75
2021/08/08 00:50:32;;;;;;;18.63;3.70;;;15.40;99.90;;;;;;5134876;27;20276;-76
2021/08/08 00:52:59;;;;;;;17.40;3.77;;;15.40;99.90;;;;;;5133836;27;20208;-75
2021/08/08 00:55:26;;;;;;;16.10;3.63;;;15.30;99.90;;;;;;5134589;27;20197;-76
2021/08/08 00:57:53;;;;;;;16.23;3.70;;;15.30;99.90;;;;;;5133264;27;20221;-76
2021/08/08 01:00:21;;;;;;;18.33;4.27;;;15.20;99.90;;;;;;5124091;27;20241;-75
2021/08/08 01:02:53;;;;;;;16.40;3.90;;;15.10;99.90;;;;;;5133564;27;20284;-75
2021/08/08 01:05:27;;;;;;;27.90;4.37;;;15.10;99.90;;;;;;5133803;27;20723;-75
2021/08/08 01:07:58;;;;;;;21.50;3.87;;;15.00;99.90;;;;;;5134135;27;20562;-75
2021/08/08 01:10:25;;;;;;;19.03;3.50;;;15.00;99.90;;;;;;5134104;27;20194;-75
2021/08/08 01:12:55;;;;;;;15.67;3.57;;;14.90;99.90;;;;;;5132935;27;20201;-76
2021/08/08 01:15:22;;;;;;;26.20;4.27;;;14.90;99.90;;;;;;5133569;27;20225;-75
2021/08/08 01:17:52;;;;;;;22.77;4.17;;;14.80;99.90;;;;;;5133636;27;20233;-75
2021/08/08 01:20:19;;;;;;;19.90;4.00;;;14.80;99.90;;;;;;5133890;27;20224;-75
2021/08/08 01:22:52;;;;;;;16.07;4.13;;;14.80;99.90;;;;;;5133530;27;20284;-75
2021/08/08 01:25:22;;;;;;;14.30;4.03;;;14.80;99.90;;;;;;5133889;27;20284;-75
2021/08/08 01:27:51;;;;;;;18.33;3.63;;;14.80;99.90;;;;;;5133619;27;20229;-75
2021/08/08 01:30:18;;;;;;;20.47;4.93;;;14.80;99.90;;;;;;5133563;27;20673;-75
2021/08/08 01:32:44;;;;;;;21.87;4.03;;;14.70;99.90;;;;;;5133478;27;20264;-76
2021/08/08 01:35:12;;;;;;;18.77;4.13;;;14.80;99.90;;;;;;5133835;27;20235;-75
2021/08/08 01:37:40;;;;;;;20.87;4.20;;;14.70;99.90;;;;;;5140290;27;20705;-75
2021/08/08 01:40:12;;;;;;;24.50;4.23;;;14.80;99.90;;;;;;5134098;28;20320;-75
2021/08/08 01:42:43;;;;;;;17.93;3.97;;;14.80;99.90;;;;;;5132630;28;20233;-75
2021/08/08 01:45:13;;;;;;;16.57;4.10;;;14.90;99.90;;;;;;5133326;28;20204;-76
2021/08/08 01:47:50;;;;;;;13.60;3.73;;;14.90;99.90;;;;;;5133181;28;20619;-75
2021/08/08 01:50:18;;;;;;;15.40;4.17;;;15.00;99.90;;;;;;5133440;28;20290;-76
2021/08/08 01:52:46;;;;;;;20.33;4.10;;;15.10;99.90;;;;;;5132534;28;20683;-75
2021/08/08 01:55:15;;;;;;;20.00;5.07;;;15.20;99.90;;;;;;5133659;28;20289;-75
2021/08/08 01:57:43;;;;;;;20.73;4.30;;;15.20;99.90;;;;;;5133207;28;20284;-75
2021/08/08 02:00:11;;;;;;;12.57;3.93;;;15.20;99.90;;;;;;5133465;28;20599;-75
2021/08/08 02:02:48;;;;;;;16.97;3.97;;;15.30;99.90;;;;;;5132956;28;20205;-76
2021/08/08 02:05:15;;;;;;;22.43;4.30;;;15.40;99.90;;;;;;5133201;28;20231;-75
2021/08/08 02:07:42;;;;;;;17.97;4.03;;;15.50;99.90;;;;;;5132996;28;20285;-75
2021/08/08 02:10:10;;;;;;;19.03;3.73;;;15.50;99.90;;;;;;5119208;28;20202;-75
2021/08/08 02:12:36;;;;;;;19.23;3.63;;;15.50;99.90;;;;;;5135097;27;20252;-76
2021/08/08 02:15:06;;;;;;;19.37;3.90;;;15.50;99.90;;;;;;5137461;27;20235;-76
2021/08/08 02:17:33;;;;;;;22.60;3.80;;;15.50;99.90;;;;;;5136400;27;20197;-76
2021/08/08 02:20:00;;;;;;;24.47;4.70;;;15.50;99.90;;;;;;5135577;27;20240;-75
2021/08/08 02:22:26;;;;;;;14.83;4.07;;;15.40;99.90;;;;;;5136382;27;20281;-75
2021/08/08 02:24:53;;;;;;;20.30;4.23;;;15.40;99.90;;;;;;5135933;27;20639;-75
2021/08/08 02:27:20;;;;;;;25.13;4.27;;;15.30;99.90;;;;;;5136735;27;20661;-75
2021/08/08 02:29:47;;;;;;;14.27;3.57;;;15.40;99.90;;;;;;5137139;27;20276;-75
2021/08/08 02:32:15;;;;;;;17.00;3.93;;;15.40;99.90;;;;;;5136766;27;20280;-75
2021/08/08 02:34:43;;;;;;;17.30;4.07;;;15.50;99.90;;;;;;5137071;27;20197;-76
2021/08/08 02:37:09;;;;;;;24.23;4.83;;;15.40;99.90;;;;;;5137015;27;20526;-75
2021/08/08 02:39:36;;;;;;;20.43;3.73;;;15.40;99.90;;;;;;5136928;27;20213;-75
2021/08/08 02:42:04;;;;;;;18.73;3.93;;;15.40;99.90;;;;;;5136827;27;20208;-76
2021/08/08 02:44:31;;;;;;;20.87;3.60;;;15.30;99.90;;;;;;5135542;27;20212;-75
2021/08/08 02:46:58;;;;;;;16.50;3.87;;;15.30;99.90;;;;;;5136305;27;20211;-75
2021/08/08 02:49:26;;;;;;;21.53;3.60;;;15.30;99.90;;;;;;5136479;27;20288;-75
2021/08/08 02:51:54;;;;;;;19.20;4.17;;;15.20;99.90;;;;;;5136807;27;20288;-75
2021/08/08 02:54:21;;;;;;;14.03;3.20;;;15.20;99.90;;;;;;5136081;27;20204;-75
2021/08/08 02:56:48;;;;;;;18.60;3.50;;;15.20;99.90;;;;;;5136962;27;20197;-75
2021/08/08 02:59:15;;;;;;;16.93;3.77;;;15.30;99.90;;;;;;5136170;27;20200;-75
2021/08/08 03:01:42;;;;;;;24.37;4.33;;;15.30;99.90;;;;;;5136430;27;20267;-76
2021/08/08 03:04:08;;;;;;;15.07;3.53;;;15.30;99.90;;;;;;5135949;27;20201;-76
2021/08/08 03:06:37;;;;;;;17.73;3.77;;;15.30;99.90;;;;;;5136298;27;20205;-76
2021/08/08 03:09:04;;;;;;;14.40;3.57;;;15.40;99.90;;;;;;5135906;27;20201;-75
2021/08/08 03:11:31;;;;;;;21.63;3.90;;;15.40;99.90;;;;;;5136084;27;20276;-76
2021/08/08 03:13:57;;;;;;;13.90;3.43;;;15.40;99.90;;;;;;5135991;27;20194;-76
2021/08/08 03:16:24;;;;;;;15.47;3.90;;;15.50;99.90;;;;;;5135180;27;20288;-76
2021/08/08 03:18:51;;;;;;;14.10;3.93;;;15.50;99.90;;;;;;5136548;27;20531;-75
2021/08/08 03:21:18;;;;;;;13.63;3.80;;;15.50;99.90;;;;;;5136136;27;20700;-76
2021/08/08 03:23:46;;;;;;;21.03;4.17;;;15.50;99.90;;;;;;5134535;27;20288;-75
2021/08/08 03:26:15;;;;;;;20.93;3.57;;;15.50;99.90;;;;;;5136432;27;20202;-75
2021/08/08 03:28:41;;;;;;;18.13;3.80;;;15.40;99.90;;;;;;5135636;27;20519;-75
2021/08/08 03:31:09;;;;;;;15.47;3.53;;;15.40;99.90;;;;;;5135693;27;20208;-76
2021/08/08 03:33:36;;;;;;;19.50;3.90;;;15.40;99.90;;;;;;5135327;27;20252;-76
2021/08/08 03:36:03;;;;;;;13.53;4.13;;;15.50;99.90;;;;;;5135786;27;20284;-75
2021/08/08 03:38:29;;;;;;;17.03;3.87;;;15.50;99.90;;;;;;5135272;27;20283;-75
2021/08/08 03:40:58;;;;;;;16.63;4.27;;;15.50;99.90;;;;;;5135476;27;20228;-76
2021/08/08 03:43:24;;;;;;;15.87;3.90;;;15.50;99.90;;;;;;5135264;27;20247;-76
2021/08/08 03:45:52;;;;;;;19.37;3.53;;;15.60;99.90;;;;;;5134870;27;20219;-76
2021/08/08 03:48:19;;;;;;;12.77;4.00;;;15.50;99.90;;;;;;5135724;27;20209;-75
2021/08/08 03:50:46;;;;;;;15.33;3.83;;;15.50;99.90;;;;;;5135396;27;20189;-76
2021/08/08 03:53:12;;;;;;;24.27;3.70;;;15.50;99.90;;;;;;5135101;27;20201;-75
2021/08/08 03:55:39;;;;;;;20.00;3.90;;;15.50;99.90;;;;;;5134769;27;20631;-76
2021/08/08 03:58:08;;;;;;;21.13;3.50;;;15.50;99.90;;;;;;5134932;27;20321;-76
2021/08/08 04:00:35;;;;;;;20.73;3.60;;;15.50;99.90;;;;;;5135425;27;20243;-76
2021/08/08 04:03:01;;;;;;;13.37;3.77;;;15.50;99.90;;;;;;5135163;27;20550;-76
2021/08/08 04:05:28;;;;;;;23.40;4.20;;;15.50;99.90;;;;;;5135128;27;20208;-75
2021/08/08 04:07:55;;;;;;;18.20;3.70;;;15.50;99.90;;;;;;5134074;27;20292;-76
2021/08/08 04:10:22;;;;;;;17.70;3.77;;;15.60;99.90;;;;;;5135299;27;20194;-76
2021/08/08 04:12:49;;;;;;;16.97;4.10;;;15.60;99.90;;;;;;5135105;27;20201;-76
2021/08/08 04:15:17;;;;;;;18.93;4.03;;;15.60;99.90;;;;;;5135262;27;20203;-76
2021/08/08 04:17:44;;;;;;;16.33;3.73;;;15.60;99.90;;;;;;5134898;27;20240;-76
2021/08/08 04:20:12;;;;;;;14.70;3.60;;;15.60;99.90;;;;;;5135014;27;20308;-76
2021/08/08 04:22:39;;;;;;;16.97;4.30;;;15.60;99.90;;;;;;5116948;27;20232;-76
2021/08/08 04:25:06;;;;;;;16.10;3.77;;;15.50;99.90;;;;;;5134639;27;20289;-76
2021/08/08 04:27:33;;;;;;;15.50;3.80;;;15.50;99.90;;;;;;5134784;27;20200;-76
2021/08/08 04:30:00;;;;;;;21.47;3.70;;;15.50;99.90;;;;;;5134497;27;20657;-76
2021/08/08 04:32:28;;;;;;;21.87;4.20;;;15.50;99.90;;;;;;5134383;27;20289;-76
2021/08/08 04:34:55;;;;;;;16.30;4.00;;;15.40;99.90;;;;;;5133820;27;20229;-76
2021/08/08 04:37:22;;;;;;;26.90;4.00;;;15.50;99.90;;;;;;5119784;27;20676;-76
2021/08/08 04:39:49;;;;;;;14.97;3.57;;;15.40;99.90;;;;;;5134480;27;20232;-76
2021/08/08 04:42:16;;;;;;;21.37;3.83;;;15.40;99.90;;;;;;5134284;27;20194;-77
2021/08/08 04:44:43;;;;;;;16.27;3.63;;;15.50;99.90;;;;;;5134477;27;20288;-76
2021/08/08 04:47:10;;;;;;;13.87;3.03;;;15.50;99.90;;;;;;5134341;27;20572;-76
2021/08/08 04:49:38;;;;;;;20.30;3.93;;;15.50;99.90;;;;;;5134412;27;20196;-76
2021/08/08 04:52:05;;;;;;;19.37;3.97;;;15.40;99.90;;;;;;5134352;27;20209;-76
2021/08/08 04:54:32;;;;;;;18.50;4.60;;;15.40;99.90;;;;;;5134238;27;20193;-76
2021/08/08 04:56:59;;;;;;;18.30;3.53;;;15.40;99.90;;;;;;5134587;27;20204;-76
2021/08/08 04:59:26;;;;;;;13.77;3.47;;;15.40;99.90;;;;;;5133969;27;20284;-76
2021/08/08 05:01:53;;;;;;;15.90;3.47;;;15.30;99.90;;;;;;5133641;27;20224;-76
2021/08/08 05:04:19;;;;;;;19.17;3.80;;;15.20;99.90;;;;;;5133251;27;20285;-76
2021/08/08 05:06:48;;;;;;;12.83;3.90;;;15.20;99.90;;;;;;5133788;27;20198;-76
2021/08/08 05:09:15;;;;;;;13.67;4.17;;;15.20;99.90;;;;;;5133809;27;20197;-76
2021/08/08 05:11:42;;;;;;;16.50;4.03;;;15.20;99.90;;;;;;5134146;27;20198;-76
2021/08/08 05:14:09;;;;;;;17.60;3.80;;;15.20;99.90;;;;;;5133868;27;20304;-76
2021/08/08 05:16:36;;;;;;;17.50;3.70;;;15.10;99.90;;;;;;5133140;27;20551;-75
2021/08/08 05:19:03;;;;;;;15.23;4.07;;;15.10;99.90;;;;;;5133398;27;20658;-76
2021/08/08 05:21:29;;;;;;;17.77;3.80;;;15.20;99.90;;;;;;5133352;27;20583;-76
2021/08/08 05:23:58;;;;;;;13.13;3.80;;;15.20;99.90;;;;;;5133685;27;20204;-76
2021/08/08 05:26:24;;;;;;;15.60;4.00;;;15.40;99.90;;;;;;5133751;27;20198;-76
2021/08/08 05:28:51;;;;;;;17.90;3.70;;;15.50;99.90;;;;;;5133847;27;20232;-76
2021/08/08 05:31:18;;;;;;;20.57;3.93;;;15.60;99.90;;;;;;5134394;27;20280;-77
2021/08/08 05:33:45;;;;;;;13.40;3.67;;;16.10;99.90;;;;;;5133077;27;20292;-76
2021/08/08 05:36:12;;;;;;;18.47;3.57;;;16.20;99.90;;;;;;5133989;27;20296;-76
2021/08/08 05:38:39;;;;;;;11.17;3.23;;;16.20;99.90;;;;;;5133397;27;20709;-76
2021/08/08 05:41:07;;;;;;;24.93;3.90;;;16.20;99.90;;;;;;5133654;28;20706;-76
2021/08/08 05:43:34;;;;;;;13.87;3.70;;;16.20;99.90;;;;;;5132245;28;20617;-76
2021/08/08 05:46:01;;;;;;;16.17;3.60;;;16.30;99.90;;;;;;5133928;27;20688;-76
2021/08/08 05:48:28;;;;;;;16.47;3.80;;;16.30;99.90;;;;;;5137498;27;20536;-76
2021/08/08 05:50:54;;;;;;;12.33;3.60;;;16.30;99.90;;;;;;5137455;27;20732;-76
2021/08/08 05:53:21;;;;;;;14.23;3.73;;;16.20;99.90;;;;;;5137783;27;20292;-77
2021/08/08 05:55:48;;;;;;;12.80;3.63;;;16.40;99.90;;;;;;5137750;27;20231;-76
2021/08/08 05:58:16;;;;;;;19.50;4.20;;;16.90;99.90;;;;;;5137588;27;20681;-76
2021/08/08 06:00:43;;;;;;;16.90;3.90;;;17.10;99.90;;;;;;5137391;27;20587;-76
2021/08/08 06:03:11;;;;;;;18.13;4.60;;;17.30;99.90;;;;;;5137336;27;20292;-76
2021/08/08 06:05:38;;;;;;;12.77;3.33;;;17.30;99.90;;;;;;5137682;27;20193;-76
2021/08/08 06:08:06;;;;;;;17.17;3.20;;;17.60;99.90;;;;;;5137159;27;20292;-76
2021/08/08 06:10:33;;;;;;;15.60;3.67;;;17.60;99.90;;;;;;5136413;27;20189;-76
2021/08/08 06:13:00;;;;;;;12.40;3.60;;;17.40;99.90;;;;;;5136676;27;20209;-75
2021/08/08 06:15:28;;;;;;;23.43;3.97;;;17.20;99.90;;;;;;5136264;27;20288;-76
2021/08/08 06:17:55;;;;;;;13.50;3.53;;;16.90;99.90;;;;;;5136963;27;20274;-76
2021/08/08 06:20:23;;;;;;;19.17;3.63;;;17.00;99.90;;;;;;5122872;27;20197;-76
2021/08/08 06:22:49;;;;;;;15.00;3.07;;;16.90;99.90;;;;;;5137240;27;20193;-76
2021/08/08 06:25:17;;;;;;;14.20;3.33;;;16.60;99.90;;;;;;5136885;27;20666;-76
2021/08/08 06:27:44;;;;;;;13.67;3.57;;;16.90;99.90;;;;;;5137057;27;20196;-76
2021/08/08 06:30:12;;;;;;;19.87;3.40;;;17.10;99.90;;;;;;5136572;27;20243;-76
2021/08/08 06:32:40;;;;;;;11.67;3.30;;;17.10;99.90;;;;;;5136932;27;20204;-76
2021/08/08 06:35:08;;;;;;;17.37;4.00;;;17.00;99.90;;;;;;5136572;27;20710;-76
2021/08/08 06:37:35;;;;;;;16.43;3.30;;;17.10;99.90;;;;;;5136212;27;20551;-76
2021/08/08 06:40:02;;;;;;;14.90;3.20;;;17.20;99.90;;;;;;5135762;27;20232;-76
2021/08/08 06:42:29;;;;;;;13.40;3.13;;;17.20;99.90;;;;;;5124375;27;20314;-76
2021/08/08 06:44:56;;;;;;;27.13;3.30;;;17.20;99.90;;;;;;5149259;27;20292;-77
2021/08/08 06:47:23;;;;;;;13.13;3.13;;;17.10;99.90;;;;;;5138480;27;20190;-76
2021/08/08 06:49:51;;;;;;;15.50;3.30;;;17.30;99.90;;;;;;5147507;27;20193;-76
2021/08/08 06:52:18;;;;;;;14.07;2.90;;;17.50;99.90;;;;;;5153177;27;20725;-76
2021/08/08 06:54:45;;;;;;;9.80;2.70;;;17.60;99.90;;;;;;5152273;27;20287;-76
2021/08/08 06:57:11;;;;;;;13.53;3.10;;;17.90;99.90;;;;;;5150581;27;20223;-76
2021/08/08 06:59:40;;;;;;;11.17;2.83;;;18.10;99.90;;;;;;5148296;27;20287;-76
2021/08/08 07:02:08;;;;;;;13.70;3.37;;;18.30;99.90;;;;;;5150756;27;20225;-76
2021/08/08 07:04:34;;;;;;;18.67;2.77;;;18.30;99.90;;;;;;5153322;27;20293;-76
2021/08/08 07:07:03;;;;;;;8.67;2.77;;;18.00;99.90;;;;;;5149054;27;20209;-76
2021/08/08 07:09:30;;;;;;;15.13;3.50;;;17.80;99.90;;;;;;5145925;27;20197;-77
2021/08/08 07:11:57;;;;;;;12.60;3.20;;;17.60;99.90;;;;;;5147475;27;20702;-76
2021/08/08 07:14:23;;;;;;;9.87;2.70;;;17.60;99.90;;;;;;5149770;27;20225;-76
2021/08/08 07:16:50;;;;;;;12.17;3.00;;;17.50;99.90;;;;;;5151905;27;20193;-76
2021/08/08 07:19:17;;;;;;;15.23;3.57;;;17.60;99.90;;;;;;5153246;27;20597;-76
2021/08/08 07:21:44;;;;;;;13.80;2.90;;;18.00;99.90;;;;;;5149308;27;20252;-77
2021/08/08 07:24:12;;;;;;;15.33;3.37;;;18.20;99.90;;;;;;5155469;27;20192;-77
2021/08/08 07:26:39;;;;;;;11.70;2.47;;;18.00;99.90;;;;;;5150406;27;20235;-76
2021/08/08 07:29:06;;;;;;;17.93;3.43;;;17.90;99.90;;;;;;5150870;27;20367;-78
2021/08/08 07:31:33;;;;;;;16.23;2.97;;;17.90;99.90;;;;;;5150051;27;20199;-77
2021/08/08 07:34:00;;;;;;;9.97;2.83;;;17.90;99.90;;;;;;5156178;27;20366;-77
2021/08/08 07:36:27;;;;;;;12.73;3.53;;;17.80;99.90;;;;;;5156089;27;20289;-76
2021/08/08 07:38:54;;;;;;;13.20;2.77;;;17.90;99.90;;;;;;5155401;27;20231;-76
2021/08/08 07:41:22;;;;;;;11.10;2.80;;;17.90;99.90;;;;;;5155208;27;20303;-76
2021/08/08 07:43:49;;;;;;;10.17;2.73;;;17.70;99.90;;;;;;5150741;27;20631;-77
2021/08/08 07:46:16;;;;;;;12.30;2.97;;;17.70;99.90;;;;;;5144690;27;20284;-77
2021/08/08 07:48:44;;;;;;;14.53;2.90;;;17.80;99.90;;;;;;5138931;27;20626;-76
2021/08/08 07:51:11;;;;;;;14.80;3.10;;;18.20;99.90;;;;;;5136049;27;20201;-77
2021/08/08 07:53:40;;;;;;;14.17;2.93;;;18.40;99.90;;;;;;5134839;27;20225;-77
2021/08/08 07:56:07;;;;;;;12.03;2.53;;;18.60;99.90;;;;;;5134592;27;20255;-77
2021/08/08 07:58:35;;;;;;;14.13;2.70;;;18.70;99.90;;;;;;5134821;27;20204;-76
2021/08/08 08:01:02;;;;;;;10.87;2.87;;;18.70;99.90;;;;;;5134295;27;20221;-77
2021/08/08 08:03:29;;;;;;;13.67;3.00;;;18.70;99.90;;;;;;5133999;27;20289;-76
2021/08/08 08:05:57;;;;;;;13.13;2.53;;;18.60;99.90;;;;;;5133296;27;20249;-77
2021/08/08 08:08:24;;;;;;;12.10;2.63;;;18.30;99.90;;;;;;5133059;27;20197;-78
2021/08/08 08:10:51;;;;;;;11.67;3.13;;;18.40;99.90;;;;;;5133846;27;20295;-77
2021/08/08 08:13:18;;;;;;;11.57;2.20;;;18.50;99.90;;;;;;5133570;27;20242;-76
2021/08/08 08:15:46;;;;;;;10.70;2.90;;;18.60;99.90;;;;;;5134211;27;20206;-76
2021/08/08 08:18:13;;;;;;;9.93;2.33;;;18.60;99.90;;;;;;5134581;27;20569;-77
2021/08/08 08:20:40;;;;;;;8.83;2.37;;;18.50;99.90;;;;;;5138492;27;20202;-76
2021/08/08 08:23:07;;;;;;;9.30;2.97;;;18.40;99.90;;;;;;5134652;27;20225;-76
2021/08/08 08:25:34;;;;;;;12.43;2.57;;;18.20;99.90;;;;;;5136867;27;20207;-76
2021/08/08 08:28:01;;;;;;;11.10;2.43;;;18.10;99.90;;;;;;5140713;27;20707;-76
2021/08/08 08:30:28;;;;;;;12.73;2.93;;;18.20;99.90;;;;;;5132391;27;20194;-76
2021/08/08 08:32:56;;;;;;;13.30;2.70;;;18.50;99.90;;;;;;5133134;27;20284;-76
2021/08/08 08:35:23;;;;;;;8.30;2.70;;;18.80;99.90;;;;;;5133091;27;20281;-77
2021/08/08 08:37:50;;;;;;;14.27;2.37;;;19.10;99.90;;;;;;5134062;27;20193;-77
2021/08/08 08:40:17;;;;;;;10.83;2.40;;;19.40;99.90;;;;;;5142268;27;20198;-77
2021/08/08 08:42:49;;;;;;;10.43;2.37;;;19.70;99.90;;;;;;5131416;27;20217;-77
2021/08/08 08:45:17;;;;;;;16.17;3.00;;;19.90;99.90;;;;;;5160405;27;20648;-77
2021/08/08 08:47:45;;;;;;;13.40;2.53;;;19.90;99.90;;;;;;5152488;27;20610;-77
2021/08/08 08:50:15;;;;;;;8.53;2.93;;;20.00;99.90;;;;;;5155049;27;20230;-77
2021/08/08 08:52:42;;;;;;;11.77;2.67;;;20.00;99.90;;;;;;5154067;27;20192;-77
2021/08/08 08:55:09;;;;;;;10.10;2.50;;;19.90;99.90;;;;;;5153701;27;20686;-77
2021/08/08 08:57:37;;;;;;;15.67;2.20;;;20.20;99.90;;;;;;5153714;27;20705;-77
2021/08/08 09:00:07;;;;;;;10.13;2.60;;;20.30;99.90;;;;;;5154786;27;20197;-77
2021/08/08 09:02:34;;;;;;;10.13;2.37;;;20.90;99.90;;;;;;5156122;27;20314;-77
2021/08/08 09:05:01;;;;;;;9.53;2.33;;;21.40;99.90;;;;;;5158377;27;20204;-77
2021/08/08 09:07:29;;;;;;;7.47;2.57;;;21.80;99.90;;;;;;5155438;27;20284;-77
2021/08/08 09:09:57;;;;;;;7.40;2.10;;;22.10;99.90;;;;;;5147881;27;20265;-76
2021/08/08 09:12:26;;;;;;;7.73;2.40;;;21.60;99.90;;;;;;5154433;27;20265;-77
2021/08/08 09:14:57;;;;;;;8.50;2.30;;;21.10;99.90;;;;;;5152315;27;20242;-78
2021/08/08 09:17:24;;;;;;;12.97;2.50;;;21.30;99.90;;;;;;5154155;27;20219;-77
2021/08/08 09:19:59;;;;;;;9.13;2.27;;;21.50;99.90;;;;;;5149587;27;20208;-76
2021/08/08 09:22:28;;;;;;;9.93;2.40;;;21.40;99.90;;;;;;5149509;27;20296;-77
2021/08/08 09:24:57;;;;;;;12.07;2.83;;;21.40;99.90;;;;;;5158210;27;20197;-77
2021/08/08 09:27:34;;;;;;;6.70;2.30;;;21.30;99.90;;;;;;5153437;27;20292;-77
2021/08/08 09:30:01;;;;;;;8.73;2.47;;;22.30;99.90;;;;;;5152970;27;20200;-77
2021/08/08 09:32:32;;;;;;;9.60;2.78;;;23.80;99.90;;;;;;5149346;27;20246;-77
2021/08/08 09:35:13;;;;;;;8.00;2.85;;;24.80;99.90;;;;;;5147940;27;20279;-77
2021/08/08 09:37:40;;;;;;;10.48;2.47;;;25.70;99.90;;;;;;5148431;27;20200;-77
2021/08/08 09:40:17;;;;;;;8.32;2.38;;;26.50;99.90;;;;;;5147457;27;20200;-75
2021/08/08 09:42:46;;;;;;;9.80;2.60;;;27.20;99.90;;;;;;5160119;27;20311;-76
2021/08/08 09:45:14;;;;;;;8.57;3.00;;;26.70;99.90;;;;;;5138306;27;20197;-76
2021/08/08 09:47:43;;;;;;;8.45;2.22;;;25.20;99.90;;;;;;5145261;27;20279;-76
2021/08/08 09:50:13;;;;;;;5.88;2.17;;;24.30;99.90;;;;;;5139963;27;20661;-76
2021/08/08 09:52:41;;;;;;;8.98;1.90;;;25.10;99.90;;;;;;5123928;27;20198;-76
2021/08/08 09:55:20;;;;;;;7.20;1.95;;;25.90;99.90;;;;;;5117839;27;20281;-76
2021/08/08 09:57:47;;;;;;;6.75;2.20;;;26.90;99.90;;;;;;5116428;27;20290;-77
2021/08/08 10:00:23;;;;;;;6.70;2.08;;;26.50;99.90;;;;;;5121139;28;20293;-76
2021/08/08 10:02:51;;;;;;;6.07;2.50;;;25.20;99.90;;;;;;5119470;28;20244;-76
2021/08/08 10:05:18;;;;;;;10.52;2.25;;;23.70;99.90;;;;;;5116935;27;20198;-76
2021/08/08 10:07:46;;;;;;;6.82;2.13;;;23.50;99.90;;;;;;5121133;28;20229;-76
2021/08/08 10:10:13;;;;;;;9.80;3.42;;;23.00;99.90;;;;;;5116765;27;20233;-76
2021/08/08 10:12:58;;;;;;;7.25;2.28;;;22.30;99.90;;;;;;5133852;27;20299;-76
2021/08/08 10:15:25;;;;;;;6.77;2.00;;;22.20;99.90;;;;;;5130301;27;20282;-76
2021/08/08 10:17:54;;;;;;;7.82;2.67;;;21.60;99.90;;;;;;5129131;28;20200;-76
2021/08/08 10:20:22;;;;;;;8.77;2.27;;;21.80;99.90;;;;;;5129485;27;20768;-76
2021/08/08 10:22:54;;;;;;;5.88;1.90;;;23.10;99.90;;;;;;5117533;28;20773;-76
2021/08/08 10:25:21;;;;;;;7.85;2.28;;;23.10;99.90;;;;;;5117682;28;20204;-76
2021/08/08 10:27:50;;;;;;;5.53;1.97;;;22.80;99.90;;;;;;5115964;27;20221;-76
2021/08/08 10:30:17;;;;;;;5.60;1.77;;;22.40;99.90;;;;;;5118407;27;20210;-76
2021/08/08 10:32:44;;;;;;;7.15;1.95;;;22.50;99.90;;;;;;5116951;27;20297;-78
2021/08/08 10:35:13;;;;;;;7.80;1.83;;;23.10;99.90;;;;;;5130973;27;20606;-76
2021/08/08 10:37:41;;;;;;;8.48;2.45;;;23.60;99.90;;;;;;5146678;27;20205;-79
2021/08/08 10:40:08;;;;;;;6.85;2.03;;;23.30;99.90;;;;;;5136581;27;20198;-76
2021/08/08 10:42:42;;;;;;;4.47;1.90;;;23.30;99.90;;;;;;5145223;27;20227;-76
2021/08/08 10:45:23;;;;;;;4.68;1.85;;;23.10;99.90;;;;;;5140955;27;20661;-78
2021/08/08 10:47:57;;;;;;;8.75;1.90;;;23.60;99.90;;;;;;5141947;27;20199;-76
2021/08/08 10:50:39;;;;;;;11.02;2.10;;;23.80;99.90;;;;;;5131553;27;20284;-78
2021/08/08 10:53:06;;;;;;;5.00;1.90;;;23.00;99.90;;;;;;5122550;27;20284;-78
2021/08/08 10:55:35;;;;;;;7.40;1.90;;;22.00;99.90;;;;;;5120494;27;20200;-79
2021/08/08 10:58:13;;;;;;;5.15;1.63;;;22.90;99.90;;;;;;5120603;27;20206;-79
2021/08/08 11:00:42;;;;;;;5.80;1.65;;;23.90;99.90;;;;;;5127544;27;20214;-76
2021/08/08 11:03:12;;;;;;;5.20;1.98;;;24.80;99.90;;;;;;5118174;27;20242;-76
2021/08/08 11:05:39;;;;;;;10.38;4.05;;;25.50;99.90;;;;;;5118815;27;20654;-76
2021/08/08 11:08:08;;;;;;;10.30;2.85;;;25.50;99.90;;;;;;5123959;27;20225;-76
2021/08/08 11:10:39;;;;;;;4.32;1.88;;;25.50;99.90;;;;;;5130511;27;20213;-76
2021/08/08 11:13:20;;;;;;;6.32;1.90;;;26.40;99.90;;;;;;5146236;27;20204;-76
2021/08/08 11:15:49;;;;;;;5.07;1.58;;;27.00;99.90;;;;;;5140225;27;20206;-77
2021/08/08 11:18:15;;;;;;;8.32;3.25;;;26.60;99.90;;;;;;5132730;27;20229;-77
2021/08/08 11:20:43;;;;;;;4.70;2.00;;;26.90;99.90;;;;;;5137992;27;20554;-76
2021/08/08 11:23:10;;;;;;;3.47;1.90;;;27.30;99.90;;;;;;5146517;27;20225;-77
2021/08/08 11:25:39;;;;;;;7.38;2.25;;;27.00;99.90;;;;;;5142146;27;20232;-77
2021/08/08 11:28:07;;;;;;;3.38;1.73;;;26.30;99.90;;;;;;5139726;27;20203;-76
2021/08/08 11:30:42;;;;;;;6.72;2.20;;;26.60;99.90;;;;;;5135019;27;20201;-77
2021/08/08 11:33:12;;;;;;;5.38;1.80;;;26.90;99.90;;;;;;5136610;27;20298;-77
2021/08/08 11:35:40;;;;;;;5.03;1.83;;;27.40;99.90;;;;;;5133652;27;20283;-76
2021/08/08 11:38:15;;;;;;;5.55;2.10;;;27.00;99.90;;;;;;5141789;27;20676;-76
2021/08/08 11:40:44;;;;;;;10.57;2.20;;;26.60;99.90;;;;;;5133977;27;20195;-76
2021/08/08 11:43:12;;;;;;;6.13;2.28;;;26.40;99.90;;;;;;5134305;27;20214;-77
2021/08/08 11:45:41;;;;;;;6.00;1.83;;;26.20;99.90;;;;;;5133835;27;20651;-77
2021/08/08 11:48:10;;;;;;;6.47;1.92;;;25.20;99.90;;;;;;5122549;27;20856;-77
2021/08/08 11:50:38;;;;;;;6.72;2.13;;;25.10;99.90;;;;;;5128930;27;20728;-77
2021/08/08 11:53:07;;;;;;;5.38;1.88;;;25.10;99.90;;;;;;5131035;27;20274;-77
2021/08/08 11:55:34;;;;;;;6.45;2.15;;;25.70;99.90;;;;;;5138604;27;20633;-77
2021/08/08 11:58:06;;;;;;;4.50;1.63;;;26.30;99.90;;;;;;5126411;27;20681;-77
2021/08/08 12:00:36;;;;;;;9.73;2.35;;;25.40;99.90;;;;;;5126545;27;20281;-77
2021/08/08 12:03:04;;;;;;;5.53;1.90;;;24.40;99.90;;;;;;5130084;27;20209;-77
2021/08/08 12:05:34;;;;;;;5.50;2.25;;;23.50;99.90;;;;;;5126631;27;20202;-76
2021/08/08 12:08:02;;;;;;;7.75;2.55;;;22.00;99.90;;;;;;5125517;27;20208;-76
2021/08/08 12:10:30;;;;;;;8.93;2.80;;;21.60;99.90;;;;;;5124858;27;20312;-76
2021/08/08 12:12:57;;;;;;;12.43;2.90;;;22.20;99.90;;;;;;5124658;27;20197;-75
2021/08/08 12:15:35;;;;;;;10.00;3.83;;;23.10;99.90;;;;;;5121924;27;20201;-76
2021/08/08 12:18:03;;;;;;;7.78;2.90;;;23.90;99.90;;;;;;5132964;27;20197;-76
2021/08/08 12:20:36;;;;;;;6.75;2.67;;;24.30;99.90;;;;;;5123539;27;20611;-77
2021/08/08 12:23:05;;;;;;;6.68;3.10;;;24.20;99.90;;;;;;5124450;27;20214;-76
2021/08/08 12:25:32;;;;;;;5.95;2.33;;;24.20;99.90;;;;;;5140267;27;20714;-76
2021/08/08 12:27:59;;;;;;;5.45;1.95;;;23.90;99.90;;;;;;5140942;27;20292;-76
2021/08/08 12:30:28;;;;;;;4.00;1.92;;;24.10;99.90;;;;;;5125092;27;20656;-76
2021/08/08 12:33:05;;;;;;;4.90;1.73;;;24.50;99.90;;;;;;5139527;27;20205;-76
2021/08/08 12:35:37;;;;;;;4.00;1.80;;;23.80;99.90;;;;;;5132451;27;20205;-76
2021/08/08 12:38:09;;;;;;;3.38;1.75;;;22.90;99.90;;;;;;5131448;27;20284;-75
2021/08/08 12:40:44;;;;;;;4.57;1.93;;;21.80;99.90;;;;;;5133116;27;20288;-76
2021/08/08 12:43:11;;;;;;;4.93;2.03;;;20.80;99.90;;;;;;5130432;27;20765;-76
2021/08/08 12:45:39;;;;;;;5.50;1.90;;;19.70;99.90;;;;;;5139407;27;20225;-75